createdAt,value
2023-04-04T00:02:08.506Z,47.15
2023-04-04T00:07:10.643Z,47.73
2023-04-04T00:12:12.792Z,47.07
2023-04-04T00:17:14.941Z,47.55
2023-04-04T00:22:18.169Z,48.21
2023-04-04T00:27:20.413Z,48.65
2023-04-04T00:32:22.626Z,48.92
2023-04-04T00:37:24.883Z,48.96
2023-04-04T00:42:27.856Z,48.56
2023-04-04T00:47:33.704Z,48.74
2023-04-04T00:52:37.541Z,49.15
2023-04-04T00:57:40.090Z,48.54
2023-04-04T01:02:42.358Z,48.60
2023-04-04T01:07:44.579Z,48.47
2023-04-04T01:12:47.637Z,48.32
2023-04-04T01:17:50.909Z,49.33
2023-04-04T01:22:54.730Z,49.43
2023-04-04T01:27:56.866Z,49.59
2023-04-04T01:33:09.620Z,49.50
2023-04-04T01:38:24.738Z,49.05
2023-04-04T01:43:27.733Z,49.31
2023-04-04T01:48:30.049Z,48.93
2023-04-04T01:53:32.191Z,49.31
2023-04-04T01:58:34.345Z,48.96
2023-04-04T02:03:36.665Z,49.17
2023-04-04T02:08:39.537Z,49.97
2023-04-04T02:13:44.449Z,50.48
2023-04-04T02:18:46.803Z,50.99
2023-04-04T02:23:48.945Z,51.42
2023-04-04T02:28:51.058Z,51.76
2023-04-04T02:33:53.199Z,52.20
2023-04-04T02:38:55.490Z,51.93
2023-04-04T02:43:57.642Z,51.48
2023-04-04T02:49:01.966Z,51.17
2023-04-04T02:54:05.301Z,50.96
2023-04-04T02:59:07.762Z,50.63
2023-04-04T03:04:10.473Z,51.16
2023-04-04T03:09:12.672Z,50.81
2023-04-04T03:14:14.831Z,51.08
2023-04-04T03:19:17.228Z,50.98
2023-04-04T03:24:19.653Z,50.93
2023-04-04T03:29:21.776Z,50.76
2023-04-04T03:34:24.822Z,51.19
2023-04-04T03:39:30.366Z,52.19
2023-04-04T03:44:32.494Z,52.67
2023-04-04T03:49:34.994Z,53.31
2023-04-04T03:54:37.201Z,53.58
2023-04-04T03:59:39.369Z,53.65
2023-04-04T04:04:41.650Z,54.19
2023-04-04T04:09:43.940Z,54.12
2023-04-04T04:14:46.144Z,54.12
2023-04-04T04:19:48.720Z,54.02
2023-04-04T04:24:50.835Z,54.32
2023-04-04T04:29:53.024Z,53.77
2023-04-04T04:34:55.122Z,53.89
2023-04-04T04:39:57.385Z,53.10
2023-04-04T04:44:59.626Z,53.49
2023-04-04T04:50:01.915Z,53.23
2023-04-04T04:55:05.025Z,53.08
2023-04-04T05:00:07.818Z,53.40
2023-04-04T05:05:10.877Z,53.18
2023-04-04T05:10:13.137Z,52.90
2023-04-04T05:15:15.310Z,53.20
2023-04-04T05:20:17.555Z,53.39
2023-04-04T05:25:19.915Z,53.75
2023-04-04T05:30:22.049Z,53.89
2023-04-04T05:35:25.308Z,53.86
2023-04-04T05:40:27.530Z,54.15
2023-04-04T05:45:29.992Z,54.78
2023-04-04T05:50:32.206Z,55.02
2023-04-04T05:55:34.311Z,54.57
2023-04-04T06:00:37.458Z,54.35
2023-04-04T06:05:39.990Z,53.86
2023-04-04T06:10:42.171Z,54.05
2023-04-04T06:15:44.368Z,52.36
2023-04-04T06:20:46.604Z,50.36
2023-04-04T06:25:48.871Z,48.47
2023-04-04T06:30:51.186Z,48.07
2023-04-04T06:35:53.344Z,46.14
2023-04-04T06:40:55.645Z,45.13
2023-04-04T06:45:58.094Z,44.55
2023-04-04T06:51:08.357Z,44.24
2023-04-04T06:56:10.930Z,43.42
2023-04-04T07:01:13.080Z,43.88
2023-04-04T07:06:15.808Z,43.08
2023-04-04T07:11:18.007Z,42.33
2023-04-04T07:16:20.353Z,41.39
2023-04-04T07:21:23.099Z,41.03
2023-04-04T07:26:25.368Z,40.17
2023-04-04T07:31:27.553Z,39.97
2023-04-04T07:36:29.712Z,38.87
2023-04-04T07:41:32.080Z,38.12
2023-04-04T07:46:34.263Z,37.24
2023-04-04T07:51:36.941Z,35.91
2023-04-04T07:56:41.005Z,34.45
2023-04-04T08:01:44.647Z,31.77
2023-04-04T08:06:48.272Z,30.32
2023-04-04T08:11:50.458Z,30.30
2023-04-04T08:16:52.783Z,30.81
2023-04-04T08:21:55.902Z,31.05
2023-04-04T08:27:05.222Z,31.18
2023-04-04T08:32:08.129Z,27.92
2023-04-04T08:37:11.529Z,28.10
2023-04-04T08:42:16.956Z,27.79
2023-04-04T08:47:20.253Z,26.87
2023-04-04T08:52:23.664Z,26.07
2023-04-04T08:57:26.285Z,24.74
2023-04-04T09:02:52.509Z,25.81
2023-04-04T09:07:56.412Z,26.61
2023-04-04T09:13:12.539Z,26.79
2023-04-04T09:18:19.030Z,25.94
2023-04-04T09:23:23.600Z,26.58
2023-04-04T09:28:26.432Z,25.64
2023-04-04T09:33:28.987Z,24.13
2023-04-04T09:38:34.053Z,24.24
2023-04-04T09:43:37.709Z,24.09
2023-04-04T09:48:40.350Z,24.05
2023-04-04T09:53:42.721Z,24.97
2023-04-04T09:59:02.378Z,23.91
2023-04-04T10:04:06.435Z,22.35
2023-04-04T10:09:09.094Z,21.88
2023-04-04T10:14:12.448Z,21.38
2023-04-04T10:19:18.739Z,21.94
2023-04-04T10:24:21.096Z,21.90
2023-04-04T10:29:24.420Z,22.18
2023-04-04T10:34:38.988Z,22.31
2023-04-04T10:39:50.619Z,21.93
2023-04-04T10:44:54.082Z,21.93
2023-04-04T10:49:57.311Z,21.90
2023-04-04T10:55:02.904Z,22.24
2023-04-04T11:00:10.792Z,20.50
2023-04-04T11:05:47.258Z,17.10
2023-04-04T11:10:51.759Z,16.49
2023-04-04T11:16:01.349Z,15.27
2023-04-04T11:21:05.656Z,15.34
2023-04-04T11:26:08.608Z,13.71
2023-04-04T11:31:20.750Z,13.06
2023-04-04T11:36:38.221Z,13.55
2023-04-04T11:42:11.608Z,12.93
2023-04-04T11:47:14.231Z,13.85
2023-04-04T11:52:17.899Z,14.68
2023-04-04T11:57:21.735Z,14.13
2023-04-04T12:02:32.185Z,12.46
2023-04-04T12:07:36.340Z,11.90
2023-04-04T12:12:39.644Z,11.57
2023-04-04T12:17:43.527Z,12.72
2023-04-04T12:22:49.999Z,14.06
2023-04-04T12:27:53.486Z,16.79
2023-04-04T12:32:56.202Z,16.16
2023-04-04T12:38:10.822Z,14.93
2023-04-04T12:43:17.911Z,14.48
2023-04-04T12:48:28.779Z,14.47
2023-04-04T12:53:33.016Z,14.45
2023-04-04T12:58:37.497Z,15.45
2023-04-04T13:03:39.997Z,15.68
2023-04-04T13:09:01.227Z,15.39
2023-04-04T13:14:04.400Z,16.04
2023-04-04T13:19:07.311Z,16.95
2023-04-04T13:24:09.427Z,17.18
2023-04-04T13:29:11.929Z,17.21
2023-04-04T13:34:14.048Z,17.96
2023-04-04T13:39:16.326Z,18.36
2023-04-04T13:44:18.542Z,18.21
2023-04-04T13:49:20.835Z,17.15
2023-04-04T13:54:24.328Z,17.53
2023-04-04T13:59:26.505Z,17.24
2023-04-04T14:04:28.842Z,16.81
2023-04-04T14:09:31.292Z,17.50
2023-04-04T14:14:35.588Z,16.73
2023-04-04T14:19:39.723Z,16.03
2023-04-04T14:24:41.910Z,15.64
2023-04-04T14:29:44.201Z,15.30
2023-04-04T14:34:46.364Z,15.03
2023-04-04T14:39:48.786Z,14.83
2023-04-04T14:44:51.180Z,15.61
2023-04-04T14:49:54.945Z,16.42
2023-04-04T14:54:58.452Z,16.94
2023-04-04T15:00:00.879Z,17.34
2023-04-04T15:05:03.742Z,17.64
2023-04-04T15:10:07.003Z,17.87
2023-04-04T15:15:10.069Z,17.94
2023-04-04T15:20:12.688Z,18.29
2023-04-04T15:25:14.837Z,18.83
2023-04-04T15:30:17.014Z,19.56
2023-04-04T15:35:20.993Z,20.50
2023-04-04T15:40:23.222Z,21.12
2023-04-04T15:45:27.505Z,21.57
2023-04-04T15:50:30.170Z,23.85
2023-04-04T15:55:32.329Z,25.32
2023-04-04T16:00:34.482Z,26.26
2023-04-04T16:05:36.673Z,27.51
2023-04-04T16:10:39.042Z,28.28
2023-04-04T16:15:41.776Z,29.25
2023-04-04T16:20:43.883Z,29.96
2023-04-04T16:25:46.259Z,30.89
2023-04-04T16:30:48.423Z,31.92
2023-04-04T16:35:50.608Z,31.77
2023-04-04T16:40:52.749Z,32.27
2023-04-04T16:45:54.965Z,32.66
2023-04-04T16:50:57.388Z,33.58
2023-04-04T16:55:59.557Z,33.19
2023-04-04T17:01:01.857Z,33.66
2023-04-04T17:06:06.187Z,34.27
2023-04-04T17:11:08.591Z,34.17
2023-04-04T17:16:10.850Z,34.61
2023-04-04T17:21:13.065Z,35.13
2023-04-04T17:26:15.428Z,35.26
2023-04-04T17:31:17.686Z,35.55
2023-04-04T17:36:20.412Z,35.53
2023-04-04T17:41:22.729Z,35.61
2023-04-04T17:46:25.571Z,35.62
2023-04-04T17:51:28.674Z,35.09
2023-04-04T17:56:31.546Z,35.10
2023-04-04T18:01:33.838Z,35.20
2023-04-04T18:06:37.637Z,34.91
2023-04-04T18:11:41.908Z,34.79
2023-04-04T18:16:44.434Z,34.32
2023-04-04T18:21:54.450Z,34.92
2023-04-04T18:26:56.702Z,35.62
2023-04-04T18:32:02.782Z,35.73
2023-04-04T18:37:04.986Z,35.81
2023-04-04T18:42:08.594Z,36.28
2023-04-04T18:47:11.817Z,37.12
2023-04-04T18:52:14.054Z,37.52
2023-04-04T18:57:16.547Z,38.10
2023-04-04T19:02:18.740Z,38.68
2023-04-04T19:07:24.715Z,39.57
2023-04-04T19:12:27.536Z,39.85
2023-04-04T19:17:30.260Z,40.44
2023-04-04T19:22:32.710Z,40.65
2023-04-04T19:27:34.952Z,40.94
2023-04-04T19:32:37.145Z,40.92
2023-04-04T19:37:39.344Z,41.86
2023-04-04T19:42:41.619Z,41.65
2023-04-04T19:47:43.794Z,41.63
2023-04-04T19:52:45.982Z,42.73
2023-04-04T19:57:48.130Z,42.93
2023-04-04T20:02:52.945Z,42.61
2023-04-04T20:07:55.848Z,42.62
2023-04-04T20:12:57.998Z,43.07
2023-04-04T20:18:00.602Z,43.02
2023-04-04T20:23:06.067Z,42.55
2023-04-04T20:28:08.364Z,42.55
2023-04-04T20:33:35.002Z,42.39
2023-04-04T20:38:39.699Z,43.00
2023-04-04T20:43:49.211Z,42.83
2023-04-04T20:48:54.346Z,43.68
2023-04-04T20:54:00.499Z,44.32
2023-04-04T20:59:02.737Z,44.46
2023-04-04T21:04:05.103Z,44.34
2023-04-04T21:09:07.339Z,44.21
2023-04-04T21:14:21.695Z,44.74
2023-04-04T21:19:24.475Z,44.80
2023-04-04T21:24:32.298Z,45.08
2023-04-04T21:29:34.461Z,45.19
2023-04-04T21:34:36.711Z,44.52
2023-04-04T21:39:38.944Z,44.68
2023-04-04T21:44:41.233Z,44.54
2023-04-04T21:49:43.378Z,44.71
2023-04-04T21:54:45.770Z,45.69
2023-04-04T21:59:47.856Z,46.11
2023-04-04T22:04:50.067Z,46.48
2023-04-04T22:09:52.905Z,46.56
2023-04-04T22:14:58.713Z,46.81
2023-04-04T22:20:01.198Z,46.97
2023-04-04T22:25:04.448Z,47.08
2023-04-04T22:30:07.557Z,47.75
2023-04-04T22:35:13.376Z,47.81
2023-04-04T22:40:15.649Z,47.47
2023-04-04T22:45:18.552Z,47.87
2023-04-04T22:50:25.344Z,48.22
2023-04-04T22:55:28.155Z,48.21
2023-04-04T23:00:30.622Z,48.47
2023-04-04T23:05:32.781Z,48.38
2023-04-04T23:10:34.985Z,48.52
2023-04-04T23:15:37.922Z,48.63
2023-04-04T23:20:41.001Z,48.89
2023-04-04T23:25:43.261Z,48.95
2023-04-04T23:30:45.628Z,48.78
2023-04-04T23:35:47.906Z,48.95
2023-04-04T23:40:50.136Z,48.92
2023-04-04T23:45:52.719Z,48.82
2023-04-04T23:50:56.618Z,48.97
2023-04-04T23:55:58.806Z,49.39
